コペンハーゲン の空港の天気 - METARとTAF

コペンハーゲン国際空港 ( EKCH / CPH ) - デンマーク コペンハーゲン
飛行場実況気象(Metar)
観測時間08/18 04:49 CEST (08/18 02:49 UTC)
風向・風速南南西 3m/s
視程5000m
天気現象
全天の4割程度の雲 雲底高度 240m
全天の8割程度の雲 雲底高度 1680m
気温16℃
湿度94%
気圧1011hPa
METAREKCH 180249Z 21005KT 5000 SCT008 BKN055 16/15 Q1011 TEMPO 4000 BR BKN008
過去の天気等 Google飛行場航空写真 Wunderground天気予報

過去48時間のMETAR

飛行場予報(TAF)
発表時間: 8/18 01:08 CEST (8/17 23:08 UTC)
予報対象時間: 18日2時 CEST ~ 19日2時 CEST
風向・風速南南西 5m/s
視程10km以上
全天の8割程度の雲 雲底高度 610m
18日2時 CEST ~ 18日10時 CEST に一時的に
視程4,000m
天気現象もや
全天の8割程度の雲 雲底高度 240m
18日19時 CEST ~ 19日2時 CEST に一時的に
視程4,000m
天気現象しゅう雨
全天の8割程度の雲 雲底高度 240m
全天の8割程度の積乱雲 雲底高度 910m
18日22時 CEST から 確率 40% で
天気現象雷雨
TAF EKCH 172308Z 1800/1824 21010KT 9999 BKN020
TEMPO 1800/1808 4000 BR BKN008
TEMPO 1817/1824 4000 SHRA BKN008 BKN030CB
PROB40 1820/1824 TSRA